1,427,529개(29633/71377페이지)
LECTURE
번호 제목 글쓴이 조회 날짜
834889 Online Slots Rules--There Are Only Three PridgenCantu5199 20 2022.02.20 13:00
834888 Black Camouflaged Poker Spade T-shirt cr KeithShoemaker0522 9 2022.02.20 13:00
834887 Have Questions About Chiropractic care C McClellanMahmoud5058 10 2022.02.20 12:59
834886 Báo Bóng Đá DiazFoldager3199 9 2022.02.20 12:59
834885 It Is Our Job To Coach Yourself On Web M BrinkValentine2850 6 2022.02.20 12:59
834884 79 Lat Temu Rozpoczęła Się II Wojna świa 사진 BrandstrupAllen3833 8 2022.02.20 12:59
834883 Bet On Sports - How To Place Bets On Spo HelboHarboe4248 9 2022.02.20 12:59
834882 Boost Your Human Hair Wigs With The Foll EngelSchmidt2892 6 2022.02.20 12:59
834881 What you ought to Know When Searching Fo AxelsenChristiansen9282 9 2022.02.20 12:58
834880 Chi Tiết Về 90ptv 90 Phút Television Trự WindButcher6202 16 2022.02.20 12:58
834879 Using Blackjack Strategy Card To Get - T KellerKhan7121 5 2022.02.20 12:58
834878 If You Wish Speedy Recommendations Regar PilegaardHarper4305 9 2022.02.20 12:58
834877 Learn How To Win Online Poker JosephsenPrince1014 14 2022.02.20 12:58
834876 Online Video Marketing Can Help You Loca FeldmanErichsen8038 9 2022.02.20 12:57
834875 Online Poker Strategy That Works For Any CollinsLangley0885 6 2022.02.20 12:57
834874 Situs Judi Slots Online Terbaik yang Sem HunterHickey7933 6 2022.02.20 12:57
834873 Promotion Recommendations It Is Possible PaulGlover6126 8 2022.02.20 12:57
834872 Drukuj Stronę - Kastracja 사진 LaursenChristensen1420 7 2022.02.20 12:57
834871 Attempt Some Video XXX Marketing Guideli RiceCaspersen4190 8 2022.02.20 12:57
834870 Online Dating 101 - Online Dating Basics WeinerBaxter5166 7 2022.02.20 12:57